Time;durP1;ratioP1;P1;durP2;ratioP2;P2;SDS_P1;SDS_P2;PMS_P1;PMS_P2;Temp;Humidity;BMP_temperature;BMP_pressure;BME280_temperature;BME280_humidity;BME280_pressure;Samples;Min_cycle;Max_cycle;Signal;HPM_P1;HPM_P2
2023/08/13 00:18:16;;;;;;;9.50;8.50;;;;;;;14.75;74.75;97536.27;104991;1263;643805;-88
2023/08/13 00:21:24;;;;;;;9.90;7.10;;;;;;;14.61;75.13;97532.15;102718;1254;5427303;-89
2023/08/13 00:24:36;;;;;;;8.80;6.90;;;;;;;14.44;75.57;97530.91;106167;1257;100107;-89
2023/08/13 00:27:44;;;;;;;10.10;7.40;;;;;;;14.36;75.93;97536.27;104966;1273;101860;-90
2023/08/13 00:41:09;;;;;;;10.90;7.10;;;;;;;14.27;75.95;97540.17;100980;1302;638766;-84
2023/08/13 00:44:20;;;;;;;8.20;7.40;;;;;;;14.23;76.14;97539.86;103296;1281;96718;-85
2023/08/13 01:00:36;;;;;;;8.00;6.50;;;;;;;14.15;75.99;97546.25;100760;1305;639069;-85
2023/08/13 01:03:44;;;;;;;11.00;7.50;;;;;;;14.10;76.45;97551.45;103690;1277;96052;-88
2023/08/13 01:20:08;;;;;;;10.80;7.50;;;;;;;13.99;76.35;97561.25;101893;1300;639996;-89
2023/08/13 01:23:20;;;;;;;9.50;7.60;;;;;;;13.95;76.41;97562.16;102920;1288;96849;-89
2023/08/13 01:42:48;;;;;;;8.60;7.80;;;;;;;13.60;77.15;97562.72;100830;1299;637079;-79
2023/08/13 01:45:56;;;;;;;10.80;7.70;;;;;;;13.63;77.64;97571.12;103087;1279;95952;-91
2023/08/13 02:02:28;;;;;;;8.30;7.10;;;;;;;13.48;77.64;97581.48;100804;1319;638841;-81
2023/08/13 02:05:37;;;;;;;8.90;8.00;;;;;;;13.49;77.89;97582.73;103203;1281;97075;-88
2023/08/13 02:08:35;;;;;;;10.10;8.80;;;;;;;13.50;78.04;97577.66;102525;1289;96024;-90
2023/08/13 02:11:43;;;;;;;9.10;8.20;;;;;;;13.50;78.07;97577.50;102505;1290;99569;-89
2023/08/13 02:27:48;;;;;;;11.20;8.40;;;;;;;13.55;78.64;97589.36;100854;1301;638089;-89
2023/08/13 02:31:00;;;;;;;8.70;7.90;;;;;;;13.55;78.86;97582.30;102267;1289;96049;-88
2023/08/13 02:46:51;;;;;;;;;;;;;;;;;;;;;
2023/08/13 02:50:09;;;;;;;10.20;7.60;;;;;;;13.52;79.01;97583.57;106197;1267;95623;-89
2023/08/13 02:53:20;;;;;;;8.10;7.30;;;;;;;13.56;79.09;97585.05;106237;1266;95859;-88
2023/08/13 02:56:31;;;;;;;9.60;8.50;;;;;;;13.56;79.14;97583.89;105684;1269;97969;-87
2023/08/13 02:59:48;;;;;;;10.20;8.40;;;;;;;13.52;79.38;97582.23;100666;1271;5376267;-89
2023/08/13 17:07:20;;;;;;;4.70;3.90;;;;;;;28.86;47.42;97395.77;107990;1263;643031;-75
2023/08/13 17:09:46;;;;;;;4.10;3.30;;;;;;;28.78;48.46;97398.97;110055;1248;209723;-75
2023/08/13 17:12:13;;;;;;;7.20;3.90;;;;;;;28.61;48.54;97401.36;108782;1251;95920;-75
2023/08/13 17:14:39;;;;;;;6.10;3.70;;;;;;;28.42;48.40;97405.70;107255;1238;95828;-75
2023/08/13 17:17:08;;;;;;;5.50;3.70;;;;;;;28.31;49.31;97403.39;107298;1243;95822;-76
2023/08/13 17:19:34;;;;;;;7.70;3.90;;;;;;;28.20;49.83;97399.33;107388;1243;95840;-76
2023/08/13 17:22:00;;;;;;;5.00;3.40;;;;;;;28.09;50.34;97400.82;107360;1243;96741;-76
2023/08/13 17:24:27;;;;;;;4.90;3.50;;;;;;;27.93;50.86;97398.15;107194;1251;98710;-76
2023/08/13 17:26:53;;;;;;;8.70;3.70;;;;;;;27.78;51.11;97400.21;107114;1243;96633;-76
2023/08/13 17:29:20;;;;;;;6.60;4.40;;;;;;;27.63;51.49;97400.66;107127;1239;95860;-76
2023/08/13 17:31:46;;;;;;;9.20;4.30;;;;;;;27.50;51.73;97407.54;107420;1238;96731;-76
2023/08/13 17:34:13;;;;;;;4.20;3.40;;;;;;;27.37;51.85;97412.84;107473;1238;100645;-76
2023/08/13 17:36:39;;;;;;;7.10;4.70;;;;;;;27.27;52.09;97416.99;107154;1238;96020;-76
2023/08/13 17:39:06;;;;;;;6.40;4.20;;;;;;;27.14;52.68;97416.73;107437;1240;96776;-76
2023/08/13 17:41:33;;;;;;;4.20;3.80;;;;;;;26.88;53.18;97413.30;107485;1243;96791;-76
2023/08/13 17:43:59;;;;;;;5.20;3.80;;;;;;;26.69;53.52;97416.83;107481;1242;96023;-76
2023/08/13 17:46:26;;;;;;;4.90;3.70;;;;;;;26.57;53.94;97421.65;107487;1243;95904;-75
2023/08/13 17:48:53;;;;;;;4.60;3.60;;;;;;;26.47;54.26;97424.27;107248;1244;99895;-76
2023/08/13 17:51:19;;;;;;;5.60;4.00;;;;;;;26.37;54.56;97427.90;107080;1238;96706;-76
2023/08/13 17:53:46;;;;;;;4.20;3.40;;;;;;;26.28;54.70;97435.95;107387;1252;95990;-76
2023/08/13 17:56:12;;;;;;;5.30;4.20;;;;;;;26.16;54.94;97441.13;107019;1248;97063;-75
2023/08/13 17:58:38;;;;;;;7.50;4.10;;;;;;;26.03;55.23;97442.08;107400;1243;95860;-75
2023/08/13 18:01:05;;;;;;;4.60;4.10;;;;;;;25.88;55.41;97444.85;107360;1243;97135;-75
2023/08/13 18:03:31;;;;;;;6.40;3.80;;;;;;;25.73;55.95;97453.41;107336;1245;96521;-76
2023/08/13 18:05:58;;;;;;;6.00;4.00;;;;;;;25.61;56.19;97457.62;107391;1241;97119;-76
2023/08/13 18:08:24;;;;;;;6.90;4.00;;;;;;;25.46;56.42;97460.04;107819;1246;96282;-76
2023/08/13 18:10:51;;;;;;;8.50;4.40;;;;;;;25.35;56.72;97459.47;107788;1239;95851;-76
2023/08/13 18:13:17;;;;;;;6.80;5.10;;;;;;;25.25;56.72;97461.10;107837;1238;95852;-76
2023/08/13 18:15:44;;;;;;;6.80;5.80;;;;;;;25.09;56.82;97461.62;107318;1251;96878;-76
2023/08/13 18:18:11;;;;;;;7.30;5.00;;;;;;;24.99;57.01;97464.17;107391;1239;96235;-76
2023/08/13 18:20:39;;;;;;;6.90;4.60;;;;;;;24.87;57.33;97472.41;107318;1239;96081;-76
2023/08/13 18:23:05;;;;;;;5.60;4.70;;;;;;;24.72;57.65;97477.79;107296;1238;95928;-76
2023/08/13 18:25:32;;;;;;;8.10;5.20;;;;;;;24.60;57.93;97480.14;107270;1242;95992;-76
2023/08/13 18:27:58;;;;;;;8.10;5.80;;;;;;;24.45;57.94;97480.98;107333;1244;96172;-76
2023/08/13 18:30:25;;;;;;;9.50;6.40;;;;;;;24.22;58.04;97482.45;107212;1240;96156;-76
2023/08/13 18:32:51;;;;;;;10.20;7.50;;;;;;;24.04;58.26;97480.09;107341;1248;95886;-76
2023/08/13 18:35:20;;;;;;;12.60;8.50;;;;;;;23.92;58.78;97490.83;107217;1242;95851;-77
2023/08/13 18:37:47;;;;;;;11.50;9.30;;;;;;;23.83;59.09;97492.11;107164;1242;101226;-77
2023/08/13 18:40:13;;;;;;;11.90;9.20;;;;;;;23.78;59.57;97496.69;107138;1242;95934;-79
2023/08/13 18:42:41;;;;;;;8.60;7.70;;;;;;;23.74;59.92;97498.78;106931;1245;96087;-78
2023/08/13 18:45:08;;;;;;;9.80;7.90;;;;;;;23.68;60.13;97501.83;106989;1238;96729;-79
2023/08/13 18:47:35;;;;;;;10.30;7.60;;;;;;;23.63;60.25;97507.57;107382;1243;97108;-78
2023/08/13 18:50:02;;;;;;;9.70;7.20;;;;;;;23.59;60.42;97508.86;107416;1248;97117;-78
2023/08/13 18:52:29;;;;;;;7.30;5.70;;;;;;;23.48;60.43;97517.44;107204;1244;96146;-78
2023/08/13 18:54:55;;;;;;;11.30;5.80;;;;;;;23.37;60.68;97521.07;107511;1241;95896;-78
2023/08/13 18:57:22;;;;;;;9.30;5.50;;;;;;;23.23;60.87;97524.23;107579;1235;95799;-78
2023/08/13 18:59:50;;;;;;;7.20;5.00;;;;;;;23.09;61.18;97525.75;107473;1239;96037;-78
2023/08/13 19:02:16;;;;;;;7.60;4.80;;;;;;;22.96;61.65;97524.64;107711;1246;95899;-78
2023/08/13 19:04:43;;;;;;;6.80;5.90;;;;;;;22.89;61.80;97524.70;107784;1240;96711;-78
2023/08/13 19:07:09;;;;;;;8.40;6.90;;;;;;;22.81;62.07;97528.95;107625;1238;95946;-77
2023/08/13 19:09:36;;;;;;;12.60;8.20;;;;;;;22.76;62.33;97530.13;107491;1246;99939;-77
2023/08/13 19:12:03;;;;;;;9.90;8.60;;;;;;;22.70;62.46;97529.67;107475;1249;97032;-78
2023/08/13 19:14:34;;;;;;;15.90;9.90;;;;;;;22.61;62.57;97534.52;107458;1239;96856;-78
2023/08/13 19:17:00;;;;;;;15.90;11.90;;;;;;;22.54;62.77;97538.91;107477;1249;96877;-78
2023/08/13 19:19:30;;;;;;;15.30;11.30;;;;;;;22.49;63.05;97539.54;107462;1249;96009;-78
2023/08/13 19:21:56;;;;;;;16.50;11.50;;;;;;;22.41;63.35;97530.90;107451;1238;100268;-87
2023/08/13 19:24:23;;;;;;;15.40;10.10;;;;;;;22.37;63.31;97538.56;107516;1246;95817;-87
2023/08/13 19:26:49;;;;;;;15.30;9.40;;;;;;;22.26;63.55;97537.58;107421;1236;96119;-86
2023/08/13 19:29:16;;;;;;;10.60;8.60;;;;;;;22.20;63.65;97541.79;107570;1235;96729;-88
2023/08/13 19:31:43;;;;;;;10.40;8.30;;;;;;;22.07;63.96;97545.27;107617;1239;100817;-87
2023/08/13 19:34:09;;;;;;;11.10;9.40;;;;;;;21.96;64.21;97542.77;107600;1246;95942;-87
2023/08/13 19:36:36;;;;;;;13.80;10.10;;;;;;;21.89;64.56;97542.71;107581;1240;95934;-88
2023/08/13 19:39:03;;;;;;;11.20;8.70;;;;;;;21.84;64.65;97546.05;107545;1239;96438;-88
2023/08/13 19:41:31;;;;;;;9.50;7.40;;;;;;;21.77;64.73;97545.40;107220;1242;96103;-78
2023/08/13 19:43:57;;;;;;;8.90;7.80;;;;;;;21.71;65.04;97546.91;107480;1238;95905;-85
2023/08/13 19:46:26;;;;;;;15.00;7.80;;;;;;;21.64;65.06;97548.73;107322;1249;96785;-84
2023/08/13 19:48:53;;;;;;;8.90;7.00;;;;;;;21.52;65.12;97552.30;107482;1239;96677;-84
2023/08/13 19:51:19;;;;;;;7.70;5.80;;;;;;;21.38;65.37;97554.17;107477;1249;96164;-84
2023/08/13 19:53:46;;;;;;;7.20;6.20;;;;;;;21.34;65.63;97556.88;107444;1246;95914;-82
2023/08/13 19:56:12;;;;;;;7.40;6.60;;;;;;;21.31;65.83;97557.27;107481;1237;95864;-83
2023/08/13 19:58:39;;;;;;;7.90;6.00;;;;;;;21.25;66.01;97552.66;107491;1238;96775;-83
2023/08/13 20:01:06;;;;;;;7.90;6.50;;;;;;;21.21;66.27;97552.11;107453;1238;95847;-77
2023/08/13 20:03:32;;;;;;;7.80;6.60;;;;;;;21.16;66.25;97556.73;107492;1249;96062;-87
2023/08/13 20:05:59;;;;;;;8.90;6.10;;;;;;;21.12;66.42;97556.14;107443;1246;97089;-86
2023/08/13 20:08:25;;;;;;;7.90;6.00;;;;;;;21.06;66.46;97555.21;107581;1239;95910;-86
2023/08/13 20:10:52;;;;;;;10.90;6.30;;;;;;;21.01;66.65;97555.38;107482;1238;99256;-86
2023/08/13 20:13:19;;;;;;;9.80;6.10;;;;;;;20.95;66.69;97558.95;107417;1246;96481;-87
2023/08/13 20:15:45;;;;;;;5.90;5.30;;;;;;;20.79;66.77;97558.88;107481;1246;95938;-87
2023/08/13 20:18:12;;;;;;;9.80;5.70;;;;;;;20.66;67.05;97556.23;107441;1241;96854;-88
2023/08/13 20:20:38;;;;;;;8.40;5.90;;;;;;;20.61;67.28;97560.13;107493;1235;100985;-88
2023/08/13 20:23:04;;;;;;;7.30;5.30;;;;;;;20.61;67.54;97562.10;107525;1238;95914;-86
2023/08/13 20:25:31;;;;;;;8.40;6.20;;;;;;;20.56;67.55;97560.27;107697;1240;95865;-85
2023/08/13 20:27:58;;;;;;;7.60;6.10;;;;;;;20.43;67.53;97562.22;109704;1246;95942;-86
2023/08/13 20:30:24;;;;;;;7.10;6.00;;;;;;;20.27;67.64;97563.13;107721;1246;99201;-86
2023/08/13 20:32:50;;;;;;;8.10;6.10;;;;;;;20.15;67.82;97568.30;107650;1248;95947;-85
2023/08/13 20:35:16;;;;;;;8.30;6.30;;;;;;;20.03;68.30;97563.98;107729;1238;96173;-85
2023/08/13 20:37:43;;;;;;;6.90;6.00;;;;;;;20.01;68.69;97563.10;107657;1238;96121;-85
2023/08/13 20:40:10;;;;;;;7.70;6.10;;;;;;;20.05;68.85;97562.17;107721;1239;100310;-77
2023/08/13 20:42:36;;;;;;;7.00;6.30;;;;;;;20.09;68.97;97566.58;107800;1240;95938;-77
2023/08/13 20:45:05;;;;;;;8.90;6.00;;;;;;;20.08;68.78;97569.75;107826;1239;96363;-77
2023/08/13 20:47:31;;;;;;;6.70;5.90;;;;;;;20.06;69.06;97569.46;107848;1239;95779;-76
2023/08/13 20:49:58;;;;;;;6.60;6.00;;;;;;;20.04;69.13;97572.48;107476;1239;95838;-77
2023/08/13 20:52:24;;;;;;;6.20;5.60;;;;;;;20.01;69.31;97574.67;107571;1240;97096;-77
2023/08/13 20:54:50;;;;;;;6.90;5.60;;;;;;;19.99;69.23;97576.94;107818;1238;99321;-76
2023/08/13 20:57:16;;;;;;;6.80;5.90;;;;;;;19.95;69.16;97575.33;108007;1246;96767;-76
2023/08/13 20:59:44;;;;;;;7.70;5.50;;;;;;;19.90;69.36;97581.20;106811;1251;95900;-85
2023/08/13 21:02:10;;;;;;;6.60;5.60;;;;;;;19.88;69.55;97583.64;107134;1253;96786;-86
2023/08/13 21:04:37;;;;;;;9.30;5.80;;;;;;;19.84;69.57;97583.00;107046;1251;100070;-85
2023/08/13 21:07:03;;;;;;;9.30;5.30;;;;;;;19.78;69.67;97578.39;107091;1254;95863;-85
2023/08/13 21:09:30;;;;;;;8.70;5.50;;;;;;;19.71;69.48;97577.57;107060;1248;96336;-85
2023/08/13 21:11:56;;;;;;;7.90;5.90;;;;;;;19.68;69.60;97579.31;107134;1257;97074;-85
2023/08/13 21:14:23;;;;;;;8.00;5.50;;;;;;;19.62;69.84;97582.08;107060;1257;98984;-85
2023/08/13 21:16:49;;;;;;;8.70;5.30;;;;;;;19.54;69.90;97586.84;107081;1243;96681;-77
2023/08/13 21:19:15;;;;;;;7.20;5.50;;;;;;;19.51;70.07;97593.62;107151;1247;96662;-84
2023/08/13 21:21:41;;;;;;;6.20;5.50;;;;;;;19.48;70.12;97596.19;107264;1242;96744;-85
2023/08/13 21:24:08;;;;;;;9.40;5.80;;;;;;;19.40;70.16;97595.27;107207;1247;99379;-84
2023/08/13 21:26:34;;;;;;;7.10;5.60;;;;;;;19.33;70.49;97596.58;107182;1247;96786;-85
2023/08/13 21:29:01;;;;;;;8.60;5.70;;;;;;;19.29;70.67;97589.33;107216;1247;96761;-85
2023/08/13 21:31:27;;;;;;;8.50;5.90;;;;;;;19.32;70.86;97590.83;107658;1240;97479;-85
2023/08/13 21:33:53;;;;;;;7.40;5.70;;;;;;;19.30;70.98;97592.06;107775;1245;97822;-84
2023/08/13 21:36:19;;;;;;;8.30;5.70;;;;;;;19.20;70.80;97590.29;107726;1242;96573;-84
2023/08/13 21:38:46;;;;;;;6.20;5.40;;;;;;;19.06;71.06;97582.04;107216;1244;96744;-84
2023/08/13 21:41:12;;;;;;;10.10;6.30;;;;;;;18.98;71.31;97583.92;107388;1242;96677;-84
2023/08/13 21:43:38;;;;;;;9.70;5.60;;;;;;;18.93;71.62;97585.16;107310;1240;98699;-84
2023/08/13 21:46:05;;;;;;;6.40;5.80;;;;;;;18.89;71.78;97582.16;107316;1238;96549;-85
2023/08/13 21:48:31;;;;;;;7.80;6.00;;;;;;;18.87;72.27;97578.96;107336;1251;97479;-85
2023/08/13 21:50:58;;;;;;;9.00;6.10;;;;;;;18.93;72.50;97581.33;107358;1242;97241;-84
2023/08/13 21:53:25;;;;;;;9.10;6.30;;;;;;;18.98;72.52;97584.04;107082;1247;100108;-85
2023/08/13 21:55:51;;;;;;;7.40;5.90;;;;;;;19.01;72.56;97585.48;107256;1251;96759;-76
2023/08/13 21:58:17;;;;;;;6.70;6.00;;;;;;;18.98;72.58;97592.17;107315;1244;97080;-85
2023/08/13 22:00:45;;;;;;;7.20;6.40;;;;;;;18.99;72.72;97595.42;107490;1242;97240;-85
2023/08/13 22:03:14;;;;;;;8.90;6.20;;;;;;;18.99;72.71;97596.63;107302;1238;98533;-84
2023/08/13 22:05:41;;;;;;;7.30;6.60;;;;;;;19.00;72.95;97592.37;107256;1246;96568;-85
2023/08/13 22:08:08;;;;;;;10.80;6.70;;;;;;;19.03;73.14;97597.33;107479;1238;97708;-85
2023/08/13 22:10:37;;;;;;;8.00;6.80;;;;;;;19.06;73.03;97603.16;107643;1245;96641;-85
2023/08/13 22:13:04;;;;;;;6.70;6.10;;;;;;;19.08;73.17;97604.52;107829;1235;100204;-85
2023/08/13 22:15:31;;;;;;;8.30;6.80;;;;;;;19.03;73.11;97602.14;107749;1241;99911;-84
2023/08/13 22:17:57;;;;;;;7.90;6.20;;;;;;;18.97;73.19;97602.96;107839;1239;96555;-84
2023/08/13 22:20:24;;;;;;;7.50;6.50;;;;;;;18.98;73.51;97607.73;107783;1246;96521;-86
2023/08/13 22:22:51;;;;;;;7.40;6.60;;;;;;;19.00;73.53;97607.97;107788;1239;97466;-85
2023/08/13 22:25:18;;;;;;;8.50;6.60;;;;;;;19.01;73.71;97602.56;107838;1238;97871;-85
2023/08/13 22:27:45;;;;;;;7.90;6.80;;;;;;;18.94;73.78;97601.95;107340;1244;97906;-84
2023/08/13 22:30:12;;;;;;;7.80;6.80;;;;;;;18.89;73.75;97601.36;107797;1248;96636;-84
2023/08/13 22:32:40;;;;;;;7.70;6.90;;;;;;;18.88;73.76;97595.45;107813;1239;96697;-84
2023/08/13 22:35:07;;;;;;;9.00;7.00;;;;;;;18.83;74.06;97590.41;107689;1246;96572;-84
2023/08/13 22:37:34;;;;;;;6.60;5.60;;;;;;;18.79;74.16;97586.99;107727;1243;97439;-76
2023/08/13 22:40:00;;;;;;;7.60;6.90;;;;;;;18.78;74.42;97586.88;107417;1248;97180;-76
2023/08/13 22:42:26;;;;;;;7.50;6.70;;;;;;;18.81;74.66;97588.00;107617;1242;96559;-76
2023/08/13 22:44:53;;;;;;;7.50;6.50;;;;;;;18.85;74.79;97592.52;107730;1240;101375;-76
2023/08/13 22:47:19;;;;;;;7.10;6.40;;;;;;;18.88;74.74;97594.61;107765;1239;97157;-76
2023/08/13 22:49:46;;;;;;;9.10;6.60;;;;;;;18.87;74.77;97590.06;107798;1240;97464;-76
2023/08/13 22:52:12;;;;;;;9.50;6.90;;;;;;;18.88;74.81;97589.36;107812;1236;97466;-76
2023/08/13 22:54:39;;;;;;;8.50;6.90;;;;;;;18.88;74.86;97588.98;107810;1238;100019;-76
2023/08/13 22:57:07;;;;;;;6.80;6.10;;;;;;;18.85;74.75;97588.58;107769;1240;97136;-76
2023/08/13 22:59:34;;;;;;;8.80;6.80;;;;;;;18.77;74.76;97582.93;107808;1239;97151;-76
2023/08/13 23:02:02;;;;;;;7.80;6.80;;;;;;;18.74;75.14;97583.55;107389;1241;97697;-76
2023/08/13 23:04:29;;;;;;;8.90;6.60;;;;;;;18.75;75.36;97586.61;106974;1247;102155;-76
2023/08/13 23:06:56;;;;;;;8.30;6.50;;;;;;;18.76;75.40;97583.30;107294;1243;98307;-76
2023/08/13 23:09:26;;;;;;;7.10;6.40;;;;;;;18.73;75.34;97576.17;107292;1245;96998;-76
2023/08/13 23:11:52;;;;;;;10.10;6.70;;;;;;;18.67;75.28;97573.77;107303;1242;97974;-85
2023/08/13 23:14:19;;;;;;;8.10;6.80;;;;;;;18.62;75.38;97568.89;107299;1245;96748;-86
2023/08/13 23:16:45;;;;;;;8.10;6.80;;;;;;;18.57;75.61;97567.18;107309;1253;96727;-86
2023/08/13 23:19:11;;;;;;;9.20;6.80;;;;;;;18.57;76.02;97566.80;107378;1253;96782;-86
2023/08/13 23:21:38;;;;;;;7.70;6.20;;;;;;;18.59;76.06;97566.56;107344;1244;96661;-86
2023/08/13 23:24:05;;;;;;;7.30;6.60;;;;;;;18.61;76.24;97569.48;107290;1242;96649;-86
2023/08/13 23:26:31;;;;;;;7.90;6.90;;;;;;;18.59;76.26;97563.76;107339;1242;96833;-85
2023/08/13 23:28:57;;;;;;;8.40;6.60;;;;;;;18.61;76.18;97567.18;107392;1252;97589;-86
2023/08/13 23:31:25;;;;;;;9.50;6.40;;;;;;;18.65;76.19;97567.11;107261;1252;97906;-86
2023/08/13 23:33:51;;;;;;;6.80;6.10;;;;;;;18.67;76.30;97563.31;107266;1242;97773;-86
2023/08/13 23:36:17;;;;;;;7.10;6.50;;;;;;;18.68;76.18;97564.42;107322;1251;96644;-86
2023/08/13 23:38:44;;;;;;;10.40;6.30;;;;;;;18.67;76.12;97562.87;107573;1245;96655;-86
2023/08/13 23:41:10;;;;;;;9.10;7.30;;;;;;;18.64;76.30;97564.48;107281;1244;96712;-86
2023/08/13 23:43:36;;;;;;;7.10;6.50;;;;;;;18.63;76.39;97560.48;107792;1239;97086;-85
2023/08/13 23:46:03;;;;;;;9.50;6.70;;;;;;;18.61;76.41;97559.95;107780;1239;97844;-86
2023/08/13 23:48:29;;;;;;;9.40;6.30;;;;;;;18.60;76.36;97566.34;107797;1243;97801;-86
2023/08/13 23:50:56;;;;;;;9.10;7.20;;;;;;;18.58;76.48;97563.93;107825;1244;96577;-76
2023/08/13 23:53:23;;;;;;;7.90;6.30;;;;;;;18.51;76.49;97565.30;107765;1246;98332;-76
2023/08/13 23:55:49;;;;;;;9.90;7.10;;;;;;;18.44;76.55;97563.70;107835;1236;97492;-76
2023/08/13 23:58:15;;;;;;;8.80;7.30;;;;;;;18.37;76.66;97562.30;107720;1244;96645;-76
